Main page
METAR-TAF:

METAR-TAF

Airports :

Nawabshah, Pakistan

Nawabshah Airport

latitude: 26-15N, longitude: 068-22E, elevation: 37 m

Current weather observation

The report was made 2 hours and 4 minutes ago, at 12:00 UTC
Calm wind
Temperature 36°C
Humidity 21%
Pressure 1005 hPa
Visibility: 5000 m
smoke

METAR: OPNH 211200Z 00000KT 5000 FU NSC 36/10 Q1005 NOSIG

Time: 19:04 (14:04 UTC)

Forecast

The report was made 4 hours and 34 minutes ago, at 09:30 UTC
Forecast valid from 21 at 12 UTC to 22 at 18 UTC
Wind 5 kt from the North
Visibility: 4000 m
haze
From 21 at 2100 UTC
Wind 3 kt from variable directions
Visibility: 3000 m
smoke
Temporary
from 22 at 00 UTC to 22 at 04 UTC
Wind kt from the North
Visibility: 2000 m
smoke
From 22 at 0700 UTC
Wind 8 kt from the Northwest
Visibility: 5000 m
haze

TAF: OPNH 210930Z 2112/2218 36005KT 4000 HZ NSC FM212100 VRB03KT 3000 FU NSC TEMPO 2200/2204 00000KT 2000 FU NSC FM220700 31008KT 5000 HZ NSC

Weather observations and forecasts of more than 4000 airports (METAR and TAF reports).

The available stations are represented by yellow and red dots on the map.

Hover mouse over dot to see the name of the station.

Then click to see weather observations and forecasts.

To change the map : click on the green buttons with a black cross to zoom in, on the green button with a dash to zoom out, or on the green arrows for adjacent maps.


METAR-TAF: